• Join FlightAware (Why Join?)
  • Login
  • US Flag 
10:10AM EST


 

Airport Tracker/Info


-or-


 

Live Flight TrackerFlight Track Log ✈ TAM3763 ✈ 08-Oct-2013 ✈ SBSP / CGH - SBLO / LDB

Flight Track Log - Related Links

Times and Time Zones

All times are in EDT time to prevent confusion due to time zone crossing. See the TAM3763 flight status page for this flight to view local times or setup timezone preferences in your user account.

Time Position Orientation Groundspeed Altitude Reporting Facility
EDT Latitude Longitude Course Direction KTS MPH feet Rate Location/Type
05:37AM -23.6420 -46.6460 155° Southeast 150 173 3,200  Level FlightAware
05:37AM -23.6460 -46.6460 180° South 158 182 3,300 1,241 Climbing FlightAware
05:37AM -23.6640 -46.6560 207° Southwest 207 238 3,800 1,448 Climbing FlightAware
05:37AM -23.6660 -46.6600 241° Southwest 214 246 4,000 2,143 Climbing FlightAware
05:37AM -23.6690 -46.6700 252° West 222 255 4,300 2,143 Climbing FlightAware
05:37AM -23.6690 -46.6740 270° West 227 261 4,500 1,929 Climbing FlightAware
05:38AM -23.6650 -46.7000 280° West 248 285 5,200 1,773 Climbing FlightAware
05:38AM -23.6590 -46.7300 282° West 283 326 5,800 2,850 Climbing FlightAware
05:38AM -23.6520 -46.7580 285° West 283 326 7,100 4,500 Climbing FlightAware
05:39AM -23.6470 -46.7810 283° West 271 312 8,500 4,167 Climbing FlightAware
05:39AM -23.6410 -46.8060 285° West 278 320 9,600 2,423 Climbing FlightAware
05:40AM -23.6290 -46.8540 285° West 314 361 10,600 2,118 Climbing FlightAware
05:40AM -23.6160 -46.9110 284° West 339 390 12,000 2,743 Climbing FlightAware
05:41AM -23.6030 -46.9690 284° West 343 395 13,800 2,957 Climbing FlightAware
05:41AM -23.5900 -47.0270 284° West 347 399 15,400 2,451 Climbing FlightAware
05:42AM -23.5750 -47.0890 285° West 361 415 16,700 2,630 Climbing FlightAware
05:43AM -23.5600 -47.1540 284° West 356 410 18,600 2,583 Climbing FlightAware
05:43AM -23.5460 -47.2150 284° West 366 421 19,800 2,113 Climbing FlightAware
05:44AM -23.5430 -47.2840 273° West 369 425 21,100 2,118 Climbing FlightAware
05:44AM -23.5410 -47.3420 272° West 373 429 22,200 2,559 Climbing FlightAware
05:45AM -23.5390 -47.4100 272° West 360 414 24,000 2,167 Climbing FlightAware
05:45AM -23.5360 -47.4750 273° West 372 428 24,800 1,890 Climbing FlightAware
05:46AM -23.5330 -47.5430 273° West 365 420 26,300 2,559 Climbing FlightAware
05:47AM -23.5310 -47.6000 272° West 346 398 27,700 1,500 Climbing FlightAware
05:47AM -23.5280 -47.6610 273° West 338 389 28,000 243 Climbing FlightAware
05:48AM -23.5250 -47.7280 273° West 350 403 28,000  Level FlightAware
05:48AM -23.5230 -47.7840 272° West 353 406 28,000  Level FlightAware
05:49AM -23.5210 -47.8470 272° West 358 412 28,000  Level FlightAware
05:50AM -23.5180 -47.9130 273° West 358 412 28,000  Level FlightAware
05:50AM -23.5150 -47.9710 273° West 357 411 28,000  Level FlightAware
05:51AM -23.5120 -48.0350 273° West 359 413 28,000  Level FlightAware
05:51AM -23.5090 -48.1000 273° West 359 413 28,000  Level FlightAware
05:52AM -23.5070 -48.1650 272° West 359 413 28,000  Level FlightAware
05:52AM -23.5040 -48.2270 273° West 359 413 28,000  Level FlightAware
05:53AM -23.5010 -48.2910 273° West 358 412 28,000  Level FlightAware
05:54AM -23.4980 -48.3570 273° West 358 412 28,000  Level FlightAware
05:54AM -23.4950 -48.4140 273° West 358 412 28,000  Level FlightAware
05:55AM -23.4920 -48.4780 273° West 358 412 28,000  Level FlightAware
05:55AM -23.4890 -48.5440 273° West 358 412 28,000  Level FlightAware
05:56AM -23.4860 -48.6010 273° West 358 412 28,000  Level FlightAware
05:57AM -23.4830 -48.6690 273° West 357 411 28,000  Level FlightAware
05:57AM -23.4800 -48.7230 273° West 358 412 28,000  Level FlightAware
05:58AM -23.4770 -48.7900 273° West 358 412 28,000  Level FlightAware
05:58AM -23.4740 -48.8520 273° West 359 413 28,000  Level FlightAware
05:59AM -23.4710 -48.9190 273° West 359 413 28,000  Level FlightAware
05:59AM -23.4680 -48.9820 273° West 359 413 28,000  Level FlightAware
06:00AM -23.4640 -49.0500 274° West 358 412 28,000  Level FlightAware
06:01AM -23.4610 -49.1070 273° West 358 412 28,000 -179 Level FlightAware
06:01AM -23.4580 -49.1690 273° West 350 403 27,800 -500 Descending FlightAware
06:02AM -23.4550 -49.2340 273° West 338 389 27,400 -627 Descending FlightAware
06:02AM -23.4520 -49.2840 274° West 341 392 27,100 -711 Descending FlightAware
06:03AM -23.4480 -49.3640 273° West 343 395 26,500 -732 Descending FlightAware
06:04AM -23.4450 -49.4270 273° West 346 398 26,100 -667 Descending FlightAware
06:04AM -23.4410 -49.4900 274° West 346 398 25,700 -706 Descending FlightAware
06:05AM -23.4380 -49.5440 273° West 343 395 25,300 -896 Descending FlightAware
06:05AM -23.4350 -49.6040 273° West 341 392 24,700 -1,014 Descending FlightAware
06:06AM -23.4320 -49.6680 273° West 345 397 24,100 -1,167 Descending FlightAware
06:07AM -23.4280 -49.7260 274° West 340 391 23,300 -1,941 Descending FlightAware
06:07AM -23.4250 -49.7840 273° West 348 400 21,900 -2,382 Descending FlightAware
06:08AM -23.4220 -49.8470 273° West 350 403 20,600 -2,167 Descending FlightAware
06:08AM -23.4180 -49.9100 274° West 349 402 19,300 -2,174 Descending FlightAware
06:09AM -23.4150 -49.9680 273° West 350 403 18,100 -2,197 Descending FlightAware
06:09AM -23.4110 -50.0360 274° West 352 405 16,700 -2,189 Descending FlightAware
06:10AM -23.4080 -50.0990 273° West 354 407 15,400 -2,118 Descending FlightAware
06:11AM -23.4050 -50.1570 273° West 353 406 14,300 -2,000 Descending FlightAware
06:11AM -23.4010 -50.2160 274° West 347 399 13,200 -1,859 Descending FlightAware
06:12AM -23.3970 -50.2790 274° West 339 390 12,100 -1,917 Descending FlightAware
06:12AM -23.3940 -50.3400 273° West 331 381 10,900 -1,676 Descending FlightAware
06:13AM -23.3910 -50.3920 274° West 316 364 10,200 -1,080 Descending FlightAware
06:13AM -23.3890 -50.4190 275° West 303 349 10,000 -811 Descending FlightAware
06:14AM -23.3870 -50.4490 274° West 290 334 9,700 -1,050 Descending FlightAware
06:14AM -23.3860 -50.4780 272° West 282 325 9,300 -1,333 Descending FlightAware
06:14AM -23.3840 -50.5000 276° West 282 325 8,900 -1,500 Descending FlightAware
06:14AM -23.3830 -50.5290 272° West 280 322 8,400 -1,500 Descending FlightAware
06:15AM -23.3810 -50.5570 274° West 278 320 7,900 -1,667 Descending FlightAware
06:15AM -23.3790 -50.5790 276° West 277 319 7,400 -1,333 Descending FlightAware
06:15AM -23.3780 -50.6060 272° West 272 313 7,100 -938 Descending FlightAware
06:16AM -23.3770 -50.6230 274° West 277 319 6,900 -1,167 Descending FlightAware
06:16AM -23.3750 -50.6570 274° West 278 320 6,400 -1,091 Descending FlightAware
06:16AM -23.3700 -50.6830 282° West 274 315 6,100 -878 Descending FlightAware
06:17AM -23.3630 -50.7110 285° West 276 318 5,800 -900 Descending FlightAware
06:17AM -23.3570 -50.7370 284° West 275 316 5,500 -1,029 Descending FlightAware
06:17AM -23.3520 -50.7600 283° West 273 314 5,200 -1,000 Descending FlightAware
06:18AM -23.3460 -50.7860 284° West 275 316 4,900 -900 Descending FlightAware
06:18AM -23.3400 -50.8120 284° West 279 321 4,600 -667 Descending FlightAware
06:18AM -23.3350 -50.8350 283° West 284 327 4,500 -500 Descending FlightAware
06:19AM -23.3290 -50.8630 283° West 270 311 4,300 -429 Descending FlightAware
06:19AM -23.3230 -50.8900 284° West 263 303 4,200 -474 Descending FlightAware
06:19AM -23.3180 -50.9110 285° West 262 302 4,000 -667 Descending FlightAware
06:20AM -23.3120 -50.9370 284° West 273 314 3,800 -429 Descending FlightAware
06:20AM -23.3050 -50.9670 284° West 278 320 3,700 -286 Descending FlightAware
06:20AM -23.2990 -50.9950 283° West 282 325 3,600 -300 Descending FlightAware
06:21AM -23.2930 -51.0220 284° West 276 318 3,500 -150 Descending FlightAware
06:21AM -23.2870 -51.0480 284° West 259 298 3,500 -136 Level FlightAware
06:21AM -23.2800 -51.0770 285° West 245 282 3,400 -273 Descending FlightAware
06:22AM -23.2750 -51.1000 283° West 238 274 3,300 -300 Descending FlightAware
06:22AM -23.2690 -51.1230 286° West 230 265 3,200 -150 Descending FlightAware
06:22AM -23.2640 -51.1450 284° West 226 260 3,200  Level FlightAware
06:22AM -23.2630 -51.1570 275° West 216 249 3,200 -333 Level FlightAware
06:23AM -23.2700 -51.1800 252° West 173 199 3,000 -353 Descending FlightAware
06:23AM -23.2740 -51.1840 223° Southwest 162 186 3,000  Level FlightAware
06:23AM -23.2770 -51.1850 197° South 158 182 3,000  Level FlightAware
06:23AM -23.2820 -51.1880 209° Southwest 149 171 3,000 -214 Level FlightAware
06:24AM -23.2950 -51.1920 196° South 141 162 2,900 -462 Descending FlightAware
06:24AM -23.2990 -51.1920 180° South 137 158 2,800 -200 Descending FlightAware
06:24AM -23.3120 -51.1870 161° South 127 146 2,800 -188 Level FlightAware
06:24AM -23.3150 -51.1830 129° Southeast 130 150 2,700 -900 Descending FlightAware
06:24AM -23.3180 -51.1760 115° Southeast 128 147 2,500 -1,125 Descending FlightAware
06:25AM -23.3220 -51.1640 110° East 126 145 2,100 -933 Descending FlightAware
06:25AM -23.3270 -51.1490 110° East 130 150 1,800 -667 Descending FlightAware
06:25AM -23.3310 -51.1370 110° East 130 150 1,600 -600 Descending FlightAware